createdAt,value
2023-03-19T00:01:05.022Z,17.70
2023-03-19T00:03:42.895Z,18.00
2023-03-19T00:06:11.029Z,17.50
2023-03-19T00:08:39.084Z,16.60
2023-03-19T00:11:11.722Z,17.50
2023-03-19T00:13:40.873Z,18.30
2023-03-19T00:16:09.098Z,18.40
2023-03-19T00:18:37.434Z,19.30
2023-03-19T00:21:06.149Z,18.90
2023-03-19T00:23:34.939Z,18.70
2023-03-19T00:26:04.065Z,17.70
2023-03-19T00:28:32.361Z,18.50
2023-03-19T00:31:10.706Z,18.10
2023-03-19T00:33:39.265Z,17.70
2023-03-19T00:36:08.160Z,18.60
2023-03-19T00:38:36.777Z,17.80
2023-03-19T00:41:06.265Z,18.50
2023-03-19T00:43:34.915Z,18.40
2023-03-19T00:46:03.521Z,18.20
2023-03-19T00:48:32.058Z,17.50
2023-03-19T00:51:09.598Z,17.60
2023-03-19T00:53:42.987Z,18.90
2023-03-19T00:56:13.648Z,18.40
2023-03-19T00:58:42.129Z,19.60
2023-03-19T01:01:13.047Z,18.00
2023-03-19T01:03:42.008Z,19.30
2023-03-19T01:06:10.393Z,19.40
2023-03-19T01:08:38.893Z,19.00
2023-03-19T01:11:09.885Z,19.90
2023-03-19T01:13:38.922Z,20.00
2023-03-19T01:16:07.579Z,20.60
2023-03-19T01:18:35.879Z,18.80
2023-03-19T01:21:05.166Z,19.60
2023-03-19T01:23:38.779Z,19.60
2023-03-19T01:26:07.399Z,19.10
2023-03-19T01:28:35.979Z,18.90
2023-03-19T01:31:08.416Z,20.50
2023-03-19T01:34:06.624Z,20.50
2023-03-19T01:36:49.640Z,19.80
2023-03-19T01:39:24.089Z,20.60
2023-03-19T01:41:52.765Z,20.30
2023-03-19T01:44:37.599Z,19.60
2023-03-19T01:47:36.178Z,20.40
2023-03-19T01:50:43.776Z,19.60
2023-03-19T01:53:32.738Z,20.70
2023-03-19T01:56:20.274Z,20.20
2023-03-19T01:59:27.949Z,20.20
2023-03-19T02:02:31.717Z,19.30
2023-03-19T02:05:10.865Z,21.40
2023-03-19T02:07:42.637Z,19.10
2023-03-19T02:10:15.161Z,19.10
2023-03-19T02:12:45.009Z,20.40
2023-03-19T02:15:13.254Z,20.90
2023-03-19T02:17:42.808Z,19.80
2023-03-19T02:20:21.408Z,19.70
2023-03-19T02:23:06.017Z,20.20
2023-03-19T02:25:46.281Z,20.20
2023-03-19T02:28:17.514Z,20.90
2023-03-19T02:30:46.517Z,21.10
2023-03-19T02:36:17.405Z,20.20
2023-03-19T02:38:48.113Z,20.50
2023-03-19T02:41:16.234Z,20.10
2023-03-19T02:43:44.449Z,19.20
2023-03-19T02:46:13.928Z,19.20
2023-03-19T02:48:42.461Z,20.10
2023-03-19T02:51:10.768Z,18.40
2023-03-19T02:53:39.125Z,18.90
2023-03-19T02:56:07.570Z,19.50
2023-03-19T02:58:35.797Z,20.30
2023-03-19T03:01:04.538Z,20.40
2023-03-19T03:03:32.953Z,20.50
2023-03-19T03:06:01.123Z,20.20
2023-03-19T03:08:29.295Z,21.00
2023-03-19T03:10:57.758Z,21.10
2023-03-19T03:13:26.027Z,20.70
2023-03-19T03:15:54.123Z,21.20
2023-03-19T03:18:22.609Z,21.10
2023-03-19T03:20:50.938Z,22.50
2023-03-19T03:23:20.506Z,22.00
2023-03-19T03:25:52.968Z,21.60
2023-03-19T03:28:21.182Z,21.50
2023-03-19T03:30:49.290Z,21.10
2023-03-19T03:33:17.523Z,21.90
2023-03-19T03:35:46.485Z,21.10
2023-03-19T03:38:14.740Z,22.00
2023-03-19T03:40:43.572Z,21.50
2023-03-19T03:43:11.641Z,20.60
2023-03-19T03:45:39.837Z,22.00
2023-03-19T03:48:09.556Z,23.60
2023-03-19T03:50:37.699Z,22.20
2023-03-19T03:53:08.902Z,22.50
2023-03-19T03:55:37.405Z,21.50
2023-03-19T03:58:06.561Z,20.00
2023-03-19T04:05:20.501Z,18.60
2023-03-19T04:07:48.780Z,20.00
2023-03-19T04:10:17.076Z,20.10
2023-03-19T04:12:46.092Z,20.10
2023-03-19T04:15:14.558Z,20.50
2023-03-19T04:17:44.426Z,20.40
2023-03-19T04:20:14.403Z,21.70
2023-03-19T04:22:42.691Z,23.40
2023-03-19T04:25:11.406Z,25.50
2023-03-19T04:27:39.860Z,23.60
2023-03-19T04:34:37.600Z,24.60
2023-03-19T04:37:06.349Z,24.20
2023-03-19T04:39:36.160Z,21.90
2023-03-19T04:42:04.634Z,21.30
2023-03-19T04:44:37.743Z,25.90
2023-03-19T04:47:06.078Z,30.20
2023-03-19T04:49:42.762Z,24.30
2023-03-19T04:52:11.032Z,20.70
2023-03-19T04:54:39.194Z,20.00
2023-03-19T04:57:07.896Z,20.30
2023-03-19T04:59:38.569Z,19.50
2023-03-19T05:02:07.112Z,20.60
2023-03-19T05:04:37.517Z,19.50
2023-03-19T05:07:08.550Z,20.20
2023-03-19T05:09:37.974Z,20.60
2023-03-19T05:12:06.939Z,18.70
2023-03-19T05:14:39.780Z,21.10
2023-03-19T05:17:15.726Z,20.90
2023-03-19T05:20:07.301Z,20.30
2023-03-19T05:22:35.680Z,19.90
2023-03-19T05:25:04.296Z,19.80
2023-03-19T05:27:33.067Z,18.30
2023-03-19T05:30:11.039Z,17.30
2023-03-19T05:32:41.898Z,18.80
2023-03-19T05:35:15.506Z,19.00
2023-03-19T05:37:43.919Z,18.80
2023-03-19T05:40:13.404Z,20.30
2023-03-19T05:42:42.887Z,19.60
2023-03-19T05:45:12.784Z,18.90
2023-03-19T05:47:50.340Z,18.60
2023-03-19T05:50:19.054Z,19.90
2023-03-19T05:53:05.412Z,20.00
2023-03-19T05:55:34.836Z,17.90
2023-03-19T05:58:07.819Z,18.40
2023-03-19T06:00:36.919Z,19.20
2023-03-19T06:03:06.671Z,19.10
2023-03-19T06:05:42.992Z,18.40
2023-03-19T06:08:30.558Z,19.00
2023-03-19T06:11:19.227Z,18.50
2023-03-19T06:13:51.867Z,17.60
2023-03-19T06:16:21.074Z,17.60
2023-03-19T06:18:53.985Z,17.90
2023-03-19T06:21:22.290Z,16.80
2023-03-19T06:23:51.511Z,16.10
2023-03-19T06:26:26.566Z,16.00
2023-03-19T06:28:57.559Z,17.30
2023-03-19T06:31:27.696Z,16.30
2023-03-19T06:34:01.670Z,15.80
2023-03-19T06:36:39.886Z,14.20
2023-03-19T06:39:10.528Z,13.00
2023-03-19T06:41:38.749Z,13.20
2023-03-19T06:44:13.494Z,12.80
2023-03-19T06:46:42.279Z,12.70
2023-03-19T06:49:10.672Z,11.80
2023-03-19T06:51:38.772Z,11.40
2023-03-19T06:54:07.282Z,11.80
2023-03-19T06:56:35.513Z,11.80
2023-03-19T06:59:04.148Z,12.00
2023-03-19T07:01:32.928Z,11.40
2023-03-19T07:04:01.098Z,10.60
2023-03-19T07:06:30.223Z,10.50
2023-03-19T07:09:16.460Z,10.60
2023-03-19T07:11:51.048Z,10.30
2023-03-19T07:14:19.472Z,10.00
2023-03-19T07:16:47.641Z,10.80
2023-03-19T07:19:16.428Z,9.70
2023-03-19T07:21:44.819Z,9.50
2023-03-19T07:24:13.030Z,11.30
2023-03-19T07:26:42.497Z,9.80
2023-03-19T07:29:11.379Z,10.30
2023-03-19T07:31:39.946Z,9.90
2023-03-19T07:34:08.545Z,9.50
2023-03-19T07:36:37.052Z,9.10
2023-03-19T07:39:05.579Z,9.20
2023-03-19T07:41:33.619Z,9.80
2023-03-19T07:44:03.014Z,10.30
2023-03-19T07:46:32.540Z,9.40
2023-03-19T07:49:01.076Z,9.10
2023-03-19T07:51:29.415Z,9.90
2023-03-19T07:53:57.472Z,9.10
2023-03-19T07:56:25.955Z,9.00
2023-03-19T07:58:54.401Z,9.70
2023-03-19T08:01:22.513Z,8.70
2023-03-19T08:03:51.151Z,9.20
2023-03-19T08:06:22.039Z,9.20
2023-03-19T08:08:50.728Z,12.40
2023-03-19T08:11:19.726Z,9.60
2023-03-19T08:13:48.050Z,8.60
2023-03-19T09:18:31.498Z,8.50
2023-03-19T09:20:59.980Z,8.90
2023-03-19T09:23:28.589Z,7.60
2023-03-19T09:25:57.072Z,8.60
2023-03-19T09:28:25.760Z,9.40
2023-03-19T09:30:54.434Z,8.20
2023-03-19T09:33:22.791Z,8.90
2023-03-19T09:35:53.867Z,8.20
2023-03-19T09:38:24.169Z,9.70
2023-03-19T09:40:59.737Z,8.60
2023-03-19T09:43:47.221Z,8.20
2023-03-19T09:46:23.827Z,9.30
2023-03-19T09:49:03.195Z,9.50
2023-03-19T09:51:43.694Z,9.60
2023-03-19T09:54:39.250Z,9.70
2023-03-19T09:57:10.036Z,9.50
2023-03-19T09:59:40.794Z,8.60
2023-03-19T10:02:41.955Z,9.60
2023-03-19T10:05:25.963Z,9.70
2023-03-19T10:08:19.811Z,9.50
2023-03-19T10:10:56.252Z,8.90
2023-03-19T10:13:30.413Z,9.40
2023-03-19T10:16:01.477Z,8.80
2023-03-19T10:18:36.180Z,7.70
2023-03-19T10:21:11.985Z,8.20
2023-03-19T10:23:46.989Z,8.30
2023-03-19T10:26:21.703Z,8.20
2023-03-19T10:29:20.751Z,7.60
2023-03-19T10:32:21.104Z,7.80
2023-03-19T10:34:53.317Z,7.40
2023-03-19T10:37:28.036Z,7.00
2023-03-19T10:40:00.096Z,7.50
2023-03-19T10:42:49.890Z,7.40
2023-03-19T10:45:30.119Z,8.10
2023-03-19T10:47:59.976Z,7.30
2023-03-19T10:51:01.604Z,7.40
2023-03-19T10:53:34.751Z,7.30
2023-03-19T10:56:26.804Z,7.40
2023-03-19T10:59:07.626Z,8.00
2023-03-19T15:34:23.087Z,6.80
2023-03-19T15:37:15.291Z,6.50
2023-03-19T15:39:49.136Z,7.40
2023-03-19T15:42:21.079Z,7.40
2023-03-19T15:44:55.529Z,6.80
2023-03-19T15:47:32.258Z,7.10
2023-03-19T15:50:12.651Z,7.10
2023-03-19T15:52:46.298Z,7.70
2023-03-19T15:55:16.769Z,7.70
2023-03-19T15:57:45.616Z,7.90
2023-03-19T16:00:18.229Z,8.40
2023-03-19T16:02:50.476Z,7.20
2023-03-19T16:05:30.926Z,6.80
2023-03-19T16:08:16.919Z,6.60
2023-03-19T16:10:47.566Z,6.10
2023-03-19T16:13:25.833Z,6.30
2023-03-19T16:16:00.947Z,6.90
2023-03-19T16:18:40.590Z,7.40
2023-03-19T16:21:34.030Z,7.20
2023-03-19T16:24:14.036Z,6.80
2023-03-19T16:26:46.847Z,7.10
2023-03-19T16:29:20.906Z,7.10
2023-03-19T16:31:52.655Z,6.70
2023-03-19T16:34:39.576Z,6.90
2023-03-19T16:37:41.089Z,7.40
2023-03-19T16:40:12.270Z,6.80
2023-03-19T16:42:56.075Z,6.20
2023-03-19T16:45:31.691Z,9.90
2023-03-19T16:48:03.501Z,10.60
2023-03-19T16:50:40.373Z,9.90
2023-03-19T16:53:22.414Z,12.10
2023-03-19T16:55:54.199Z,11.80
2023-03-19T16:58:31.927Z,10.90
2023-03-19T17:01:01.287Z,8.80
2023-03-19T17:03:30.364Z,8.10
2023-03-19T17:05:58.724Z,8.70
2023-03-19T17:08:26.924Z,7.40
2023-03-19T17:10:55.663Z,8.90
2023-03-19T17:13:30.186Z,9.00
2023-03-19T17:16:02.869Z,9.80
2023-03-19T17:18:36.629Z,11.50
2023-03-19T17:21:16.013Z,10.10
2023-03-19T17:23:44.334Z,10.20
2023-03-19T17:26:17.424Z,10.20
2023-03-19T17:28:46.343Z,11.80
2023-03-19T17:31:28.811Z,11.40
2023-03-19T17:34:16.781Z,11.50
2023-03-19T17:36:51.405Z,11.30
2023-03-19T17:39:20.002Z,13.40
2023-03-19T17:41:48.383Z,10.90
2023-03-19T17:44:16.597Z,11.30
2023-03-19T17:46:47.562Z,13.00
2023-03-19T17:49:29.158Z,9.70
2023-03-19T17:51:58.130Z,12.10
2023-03-19T17:54:27.335Z,10.00
2023-03-19T17:56:56.244Z,11.10
2023-03-19T17:59:25.944Z,11.30
2023-03-19T18:01:54.154Z,11.40
2023-03-19T18:04:22.826Z,13.60
2023-03-19T18:06:56.120Z,14.70
2023-03-19T18:09:28.702Z,12.80
2023-03-19T18:11:57.842Z,12.10
2023-03-19T18:14:26.134Z,11.90
2023-03-19T18:16:56.115Z,11.90
2023-03-19T18:19:33.648Z,11.90
2023-03-19T18:22:02.146Z,12.80
2023-03-19T18:24:30.385Z,11.70
2023-03-19T18:26:58.361Z,13.10
2023-03-19T18:29:26.425Z,19.50
2023-03-19T18:31:54.879Z,18.30
2023-03-19T18:34:23.090Z,17.00
2023-03-19T18:36:52.204Z,17.50
2023-03-19T18:39:21.498Z,15.20
2023-03-19T18:41:49.776Z,17.50
2023-03-19T18:44:19.254Z,17.50
2023-03-19T18:46:47.377Z,17.00
2023-03-19T18:49:26.770Z,15.70
2023-03-19T18:52:02.664Z,16.50
2023-03-19T18:54:32.538Z,16.80
2023-03-19T18:57:02.030Z,16.10
2023-03-19T18:59:33.248Z,18.30
2023-03-19T19:04:36.594Z,17.90
2023-03-19T19:07:05.075Z,19.00
2023-03-19T19:09:33.323Z,18.20
2023-03-19T19:12:02.252Z,18.20
2023-03-19T19:14:30.898Z,17.40
2023-03-19T19:16:59.490Z,18.00
2023-03-19T19:19:27.931Z,18.80
2023-03-19T19:21:56.105Z,17.20
2023-03-19T19:24:24.520Z,16.30
2023-03-19T19:26:54.528Z,18.20
2023-03-19T19:29:28.571Z,17.90
2023-03-19T19:31:57.252Z,17.90
2023-03-19T19:34:25.304Z,18.10
2023-03-19T19:36:57.734Z,18.10
2023-03-19T19:39:27.115Z,16.60
2023-03-19T19:41:56.224Z,19.70
2023-03-19T19:44:24.349Z,18.30
2023-03-19T19:46:54.731Z,17.90
2023-03-19T19:49:23.295Z,17.60
2023-03-19T19:51:51.481Z,15.70
2023-03-19T19:54:19.484Z,16.00
2023-03-19T19:56:47.692Z,20.50
2023-03-19T19:59:16.193Z,20.80
2023-03-19T20:01:44.516Z,24.80
2023-03-19T20:04:14.821Z,25.20
2023-03-19T20:06:43.145Z,18.60
2023-03-19T20:09:11.299Z,18.30
2023-03-19T20:11:39.605Z,20.40
2023-03-19T20:14:12.241Z,17.40
2023-03-19T20:16:40.365Z,18.60
2023-03-19T20:19:19.478Z,19.40
2023-03-19T20:21:47.866Z,16.50
2023-03-19T20:24:15.873Z,17.80
2023-03-19T20:26:44.007Z,17.80
2023-03-19T20:29:16.172Z,22.70
2023-03-19T20:31:46.017Z,22.80
2023-03-19T20:34:22.516Z,22.20
2023-03-19T20:36:54.105Z,22.30
2023-03-19T20:39:22.534Z,24.60
2023-03-19T20:41:51.702Z,21.70
2023-03-19T20:44:22.682Z,24.80
2023-03-19T20:46:50.884Z,22.70
2023-03-19T20:49:19.047Z,24.20
2023-03-19T20:51:47.046Z,26.40
2023-03-19T20:54:15.036Z,28.30
2023-03-19T20:56:45.927Z,26.70
2023-03-19T20:59:15.499Z,25.40
2023-03-19T21:01:43.761Z,23.60
2023-03-19T21:04:18.922Z,26.90
2023-03-19T21:06:53.451Z,28.10
2023-03-19T21:09:24.075Z,28.60
2023-03-19T21:11:52.987Z,26.10
2023-03-19T21:14:23.454Z,24.40
2023-03-19T21:16:51.902Z,27.90
2023-03-19T21:19:20.272Z,27.60
2023-03-19T21:21:48.490Z,26.80
2023-03-19T21:24:20.517Z,24.00
2023-03-19T21:26:48.815Z,24.60
2023-03-19T21:29:34.788Z,29.30
2023-03-19T21:32:02.782Z,26.70
2023-03-19T21:34:31.116Z,28.60
2023-03-19T21:36:59.280Z,30.00
2023-03-19T21:39:27.403Z,31.00
2023-03-19T21:41:57.189Z,29.30
2023-03-19T21:44:29.685Z,27.50
2023-03-19T21:46:58.063Z,29.60
2023-03-19T21:49:26.422Z,29.60
2023-03-19T21:51:57.027Z,27.60
2023-03-19T21:54:25.048Z,27.40
2023-03-19T21:56:53.485Z,27.80
2023-03-19T21:59:29.484Z,27.90
2023-03-19T22:01:57.889Z,28.60
2023-03-19T22:04:25.886Z,30.30
2023-03-19T22:06:54.496Z,31.30
2023-03-19T22:09:22.756Z,29.60
2023-03-19T22:11:50.914Z,29.50
2023-03-19T22:14:26.972Z,29.50
2023-03-19T22:16:57.080Z,30.80
2023-03-19T22:19:25.876Z,29.90
2023-03-19T22:21:54.101Z,31.90
2023-03-19T22:24:22.217Z,33.40
2023-03-19T22:26:56.419Z,33.20
2023-03-19T22:29:25.652Z,33.70
2023-03-19T22:31:56.139Z,32.50
2023-03-19T22:34:27.715Z,31.20
2023-03-19T22:36:56.740Z,32.90
2023-03-19T22:39:24.843Z,27.50
2023-03-19T22:41:53.108Z,28.60
2023-03-19T22:44:28.100Z,29.20
2023-03-19T22:46:59.582Z,30.00
2023-03-19T22:49:29.866Z,28.50
2023-03-19T22:51:58.710Z,37.90
2023-03-19T22:54:26.821Z,41.20
2023-03-19T22:56:55.302Z,31.70
2023-03-19T22:59:23.641Z,28.00
2023-03-19T23:01:52.088Z,37.20
2023-03-19T23:04:23.160Z,28.10
2023-03-19T23:06:53.524Z,26.80
2023-03-19T23:09:24.184Z,26.80
2023-03-19T23:11:53.666Z,30.20
2023-03-19T23:14:29.590Z,31.50
2023-03-19T23:17:15.700Z,26.50
2023-03-19T23:19:43.907Z,26.30
2023-03-19T23:22:16.588Z,31.30
2023-03-19T23:24:44.857Z,31.20
2023-03-19T23:27:31.168Z,25.90
2023-03-19T23:30:00.997Z,25.40
2023-03-19T23:32:29.102Z,26.60
2023-03-19T23:35:01.454Z,25.30
2023-03-19T23:37:56.514Z,28.20
2023-03-19T23:40:30.109Z,27.90
2023-03-19T23:43:00.207Z,27.80
2023-03-19T23:45:38.406Z,28.20
2023-03-19T23:48:13.933Z,27.90
2023-03-19T23:50:42.148Z,25.80
2023-03-19T23:53:18.754Z,27.00
2023-03-19T23:55:49.597Z,29.70
2023-03-19T23:58:18.623Z,34.30
